Time;durP1;ratioP1;P1;durP2;ratioP2;P2;SDS_P1;SDS_P2;PMS_P1;PMS_P2;Temp;Humidity;BMP_temperature;BMP_pressure;BME280_temperature;BME280_humidity;BME280_pressure;Samples;Min_cycle;Max_cycle;Signal;HPM_P1;HPM_P2
2022/11/07 00:00:30;;;;;;;16.08;8.38;;;;;;;;;;4929463;28;20368;-81
2022/11/07 00:02:58;;;;;;;15.43;8.25;;;;;;;;;;4914547;28;20035;-80
2022/11/07 00:05:23;;;;;;;;;;;;;;;;;;4929757;28;20046;-81
2022/11/07 00:07:48;;;;;;;14.13;7.43;;;;;;;;;;4944360;28;19914;-81
2022/11/07 00:10:14;;;;;;;13.43;7.65;;;;;;;;;;4948224;28;20053;-82
2022/11/07 00:12:39;;;;;;;14.18;7.43;;;;;;;;;;4977401;28;20481;-81
2022/11/07 00:15:05;;;;;;;12.15;7.03;;;;;;;;;;4976655;28;20710;-81
2022/11/07 00:17:30;;;;;;;17.25;7.88;;;;;;;;;;4965087;28;20506;-81
2022/11/07 00:19:56;;;;;;;14.55;7.80;;;;;;;;;;4969761;28;20030;-81
2022/11/07 00:22:21;;;;;;;12.90;7.60;;;;;;;;;;4975784;28;20486;-81
2022/11/07 00:24:49;;;;;;;14.30;7.88;;;;;;;;;;4985883;28;20160;-81
2022/11/07 00:27:14;;;;;;;13.38;7.45;;;;;;;;;;4978478;28;20042;-81
2022/11/07 00:29:40;;;;;;;13.50;7.47;;;;;;;;;;4969692;28;20155;-82
2022/11/07 00:32:05;;;;;;;13.00;7.25;;;;;;;;;;4969669;28;20092;-81
2022/11/07 00:34:34;;;;;;;12.98;7.25;;;;;;;;;;4968273;28;20507;-81
2022/11/07 00:36:59;;;;;;;13.57;7.30;;;;;;;;;;4970475;28;20501;-80
2022/11/07 00:39:28;;;;;;;13.27;7.47;;;;;;;;;;4970544;28;20034;-81
2022/11/07 00:41:53;;;;;;;13.80;7.50;;;;;;;;;;4962052;28;20501;-81
2022/11/07 00:44:19;;;;;;;14.93;7.22;;;;;;;;;;4996163;28;20087;-81
2022/11/07 00:46:44;;;;;;;12.73;7.20;;;;;;;;;;4967880;28;20039;-81
2022/11/07 00:49:09;;;;;;;13.10;7.28;;;;;;;;;;4967876;28;20038;-81
2022/11/07 00:51:35;;;;;;;12.32;6.18;;;;;;;;;;4993300;28;21057;-81
2022/11/07 00:54:02;;;;;;;12.73;6.82;;;;;;;;;;4970583;28;20040;-81
2022/11/07 00:56:29;;;;;;;10.70;6.50;;;;;;;;;;4985622;28;20045;-81
2022/11/07 00:58:56;;;;;;;12.52;5.75;;;;;;;;;;4993267;28;20440;-81
2022/11/07 01:01:24;;;;;;;12.10;6.95;;;;;;;;;;4975518;28;20041;-81
2022/11/07 01:06:36;;;;;;;12.82;6.85;;;;;;;;;;4991977;28;20049;-82
2022/11/07 01:09:02;;;;;;;11.82;6.80;;;;;;;;;;4968180;28;20069;-81
2022/11/07 01:11:28;;;;;;;10.85;6.20;;;;;;;;;;4983859;28;20093;-81
2022/11/07 01:13:58;;;;;;;10.35;6.18;;;;;;;;;;4974873;28;20034;-81
2022/11/07 01:16:25;;;;;;;10.90;6.55;;;;;;;;;;4967324;28;20073;-81
2022/11/07 01:18:50;;;;;;;12.82;7.07;;;;;;;;;;4979258;28;20055;-81
2022/11/07 01:21:16;;;;;;;11.10;6.25;;;;;;;;;;4965141;28;20045;-81
2022/11/07 01:23:43;;;;;;;12.32;6.55;;;;;;;;;;4981820;28;20501;-80
2022/11/07 01:26:10;;;;;;;10.80;6.00;;;;;;;;;;4956666;28;20030;-80
2022/11/07 01:28:37;;;;;;;12.40;7.15;;;;;;;;;;4962711;28;20043;-81
2022/11/07 01:31:04;;;;;;;11.68;6.63;;;;;;;;;;4964227;28;20478;-81
2022/11/07 01:33:30;;;;;;;11.38;6.15;;;;;;;;;;4982235;28;20089;-81
2022/11/07 01:36:02;;;;;;;11.73;6.18;;;;;;;;;;4963659;28;20042;-81
2022/11/07 01:38:30;;;;;;;11.43;6.05;;;;;;;;;;4981274;28;20563;-81
2022/11/07 01:43:51;;;;;;;12.18;6.32;;;;;;;;;;4980590;28;20049;-81
2022/11/07 01:46:17;;;;;;;9.53;5.93;;;;;;;;;;4997233;28;20058;-82
2022/11/07 01:48:51;;;;;;;10.77;6.18;;;;;;;;;;4973386;28;20040;-82
2022/11/07 01:51:17;;;;;;;12.88;6.53;;;;;;;;;;4978274;28;20036;-81
2022/11/07 01:53:43;;;;;;;11.18;6.38;;;;;;;;;;4972925;28;20042;-82
2022/11/07 01:56:12;;;;;;;11.63;6.90;;;;;;;;;;4986772;28;20490;-81
2022/11/07 01:58:38;;;;;;;11.05;5.80;;;;;;;;;;4964955;28;20038;-81
2022/11/07 02:01:03;;;;;;;12.10;6.07;;;;;;;;;;4969156;28;20030;-81
2022/11/07 02:03:29;;;;;;;10.35;5.57;;;;;;;;;;4967296;28;20556;-82
2022/11/07 02:05:58;;;;;;;9.65;5.30;;;;;;;;;;4970258;28;20445;-82
2022/11/07 02:08:23;;;;;;;10.10;5.55;;;;;;;;;;4973999;28;20038;-82
2022/11/07 02:10:49;;;;;;;11.32;5.97;;;;;;;;;;4987191;28;20057;-82
2022/11/07 02:13:26;;;;;;;10.48;5.90;;;;;;;;;;4976905;28;20054;-81
2022/11/07 02:15:52;;;;;;;8.82;5.03;;;;;;;;;;4986260;28;20040;-82
2022/11/07 02:18:17;;;;;;;10.38;5.57;;;;;;;;;;4969791;28;20029;-82
2022/11/07 02:20:44;;;;;;;9.98;5.20;;;;;;;;;;4986611;28;20096;-82
2022/11/07 02:23:20;;;;;;;10.48;5.60;;;;;;;;;;4985635;28;20047;-81
2022/11/07 02:25:46;;;;;;;9.82;5.07;;;;;;;;;;4966539;28;20046;-81
2022/11/07 02:28:12;;;;;;;9.88;5.35;;;;;;;;;;4971502;28;21002;-81
2022/11/07 02:30:38;;;;;;;8.90;5.50;;;;;;;;;;4970375;28;20133;-82
2022/11/07 02:33:15;;;;;;;9.63;5.38;;;;;;;;;;4972467;28;20113;-82
2022/11/07 02:35:41;;;;;;;;;;;;;;;;;;4972626;28;20037;-81
2022/11/07 02:38:13;;;;;;;9.82;4.97;;;;;;;;;;4994014;28;19918;-82
2022/11/07 02:40:38;;;;;;;11.10;5.50;;;;;;;;;;4992197;28;20041;-82
2022/11/07 02:43:25;;;;;;;9.35;5.38;;;;;;;;;;4969765;28;20042;-81
2022/11/07 02:45:50;;;;;;;9.40;5.23;;;;;;;;;;4900312;29;20040;-82
2022/11/07 02:48:16;;;;;;;8.98;5.05;;;;;;;;;;4874870;29;21297;-82
2022/11/07 02:50:42;;;;;;;9.50;5.70;;;;;;;;;;4880978;29;20048;-82
2022/11/07 02:53:07;;;;;;;8.15;4.90;;;;;;;;;;4891390;29;20040;-82
2022/11/07 02:55:32;;;;;;;9.32;5.15;;;;;;;;;;4868894;29;20040;-81
2022/11/07 02:57:58;;;;;;;8.80;5.25;;;;;;;;;;4886037;29;20040;-81
2022/11/07 03:00:23;;;;;;;10.38;4.93;;;;;;;;;;4875378;29;20088;-82
2022/11/07 03:02:49;;;;;;;7.68;4.88;;;;;;;;;;4886221;29;20579;-82
2022/11/07 03:05:16;;;;;;;9.60;5.15;;;;;;;;;;4901186;29;20060;-81
2022/11/07 03:07:43;;;;;;;9.60;5.38;;;;;;;;;;4898264;29;20048;-81
2022/11/07 03:10:09;;;;;;;9.07;5.03;;;;;;;;;;4886335;29;20065;-81
2022/11/07 03:12:34;;;;;;;10.95;5.07;;;;;;;;;;4883550;29;20504;-81
2022/11/07 03:15:00;;;;;;;9.52;5.20;;;;;;;;;;4885629;29;20041;-81
2022/11/07 03:17:25;;;;;;;8.35;4.47;;;;;;;;;;4900817;29;20041;-82
2022/11/07 03:19:51;;;;;;;9.70;4.70;;;;;;;;;;4890624;29;20574;-82
2022/11/07 03:22:16;;;;;;;8.23;4.63;;;;;;;;;;4906805;28;21042;-82
2022/11/07 03:24:41;;;;;;;9.80;4.82;;;;;;;;;;4970431;28;20049;-82
2022/11/07 03:27:07;;;;;;;9.10;5.05;;;;;;;;;;4980310;28;20450;-81
2022/11/07 03:29:32;;;;;;;7.35;4.43;;;;;;;;;;4969126;28;20552;-81
2022/11/07 03:31:59;;;;;;;8.32;4.78;;;;;;;;;;4967017;28;20022;-82
2022/11/07 03:34:25;;;;;;;9.52;4.88;;;;;;;;;;4983515;28;20042;-82
2022/11/07 03:36:50;;;;;;;8.90;4.78;;;;;;;;;;4978970;28;20038;-82
2022/11/07 03:39:15;;;;;;;8.50;5.03;;;;;;;;;;4972267;28;20035;-82
2022/11/07 03:41:41;;;;;;;10.25;5.18;;;;;;;;;;4979770;28;20117;-83
2022/11/07 03:44:06;;;;;;;7.32;4.45;;;;;;;;;;4986806;28;20037;-81
2022/11/07 03:46:31;;;;;;;8.88;4.82;;;;;;;;;;4984589;28;20470;-82
2022/11/07 03:48:57;;;;;;;7.78;4.50;;;;;;;;;;4977012;28;20559;-81
2022/11/07 03:51:22;;;;;;;7.95;4.40;;;;;;;;;;4971233;28;20038;-82
2022/11/07 03:53:48;;;;;;;7.32;4.72;;;;;;;;;;4984864;28;20090;-81
2022/11/07 03:56:13;;;;;;;7.90;4.93;;;;;;;;;;4969257;28;20533;-81
2022/11/07 03:58:38;;;;;;;8.38;4.85;;;;;;;;;;4996385;28;20110;-82
2022/11/07 04:01:09;;;;;;;8.02;4.80;;;;;;;;;;4995209;28;20069;-82
2022/11/07 04:03:34;;;;;;;8.60;5.00;;;;;;;;;;4965099;28;20503;-82
2022/11/07 04:05:59;;;;;;;8.95;5.03;;;;;;;;;;4968192;28;20042;-82
2022/11/07 04:08:25;;;;;;;7.88;4.88;;;;;;;;;;4967825;28;20096;-82
2022/11/07 04:10:50;;;;;;;8.52;4.95;;;;;;;;;;4966350;28;20455;-82
2022/11/07 04:18:43;;;;;;;8.35;4.60;;;;;;;;;;4981771;28;20414;-82
2022/11/07 04:21:09;;;;;;;9.30;4.85;;;;;;;;;;4977442;28;20043;-82
2022/11/07 04:23:34;;;;;;;7.57;4.57;;;;;;;;;;4976659;28;20397;-82
2022/11/07 04:28:43;;;;;;;7.75;4.63;;;;;;;;;;4992189;28;20041;-82
2022/11/07 04:31:08;;;;;;;8.27;4.82;;;;;;;;;;4979937;28;20030;-82
2022/11/07 04:33:34;;;;;;;7.75;4.88;;;;;;;;;;4962840;28;20404;-82
2022/11/07 04:35:59;;;;;;;8.40;4.75;;;;;;;;;;4977489;28;20377;-82
2022/11/07 04:38:24;;;;;;;10.48;5.00;;;;;;;;;;4969910;28;20118;-81
2022/11/07 04:40:54;;;;;;;6.90;4.28;;;;;;;;;;4970921;28;20041;-81
2022/11/07 04:43:19;;;;;;;7.28;4.35;;;;;;;;;;4964781;28;20485;-82
2022/11/07 04:45:44;;;;;;;7.90;4.30;;;;;;;;;;4973669;28;20042;-81
2022/11/07 04:48:11;;;;;;;7.55;4.38;;;;;;;;;;4968253;28;20501;-80
2022/11/07 04:50:37;;;;;;;7.40;4.53;;;;;;;;;;4984835;28;20044;-81
2022/11/07 04:53:02;;;;;;;8.13;4.78;;;;;;;;;;4967311;28;20428;-82
2022/11/07 04:55:30;;;;;;;8.30;4.50;;;;;;;;;;4967268;28;20096;-83
2022/11/07 04:57:56;;;;;;;7.32;4.50;;;;;;;;;;4979958;28;20158;-81
2022/11/07 05:00:22;;;;;;;6.63;4.00;;;;;;;;;;4977573;28;20571;-81
2022/11/07 05:02:48;;;;;;;7.65;4.57;;;;;;;;;;4974746;28;20485;-82
2022/11/07 05:05:13;;;;;;;6.72;3.85;;;;;;;;;;4991760;28;20065;-82
2022/11/07 05:07:39;;;;;;;7.65;4.65;;;;;;;;;;4976972;28;20092;-82
2022/11/07 05:10:06;;;;;;;6.68;4.10;;;;;;;;;;4993397;28;20035;-81
2022/11/07 05:12:31;;;;;;;8.43;4.38;;;;;;;;;;4972371;28;20026;-82
2022/11/07 05:14:57;;;;;;;8.15;4.22;;;;;;;;;;4962682;28;20043;-81
2022/11/07 05:17:22;;;;;;;7.50;4.20;;;;;;;;;;4968312;28;20035;-82
2022/11/07 05:19:48;;;;;;;6.97;4.03;;;;;;;;;;4985481;28;20030;-82
2022/11/07 05:24:57;;;;;;;6.82;4.03;;;;;;;;;;4977597;28;20084;-81
2022/11/07 05:27:22;;;;;;;6.95;4.18;;;;;;;;;;4969637;28;20047;-82
2022/11/07 05:29:48;;;;;;;7.43;4.30;;;;;;;;;;4976038;28;20042;-82
2022/11/07 05:32:14;;;;;;;6.53;3.92;;;;;;;;;;4970737;28;20042;-82
2022/11/07 05:34:39;;;;;;;7.28;4.00;;;;;;;;;;4985302;28;20038;-82
2022/11/07 05:37:09;;;;;;;6.68;4.07;;;;;;;;;;4992138;28;20189;-82
2022/11/07 05:39:34;;;;;;;7.10;3.80;;;;;;;;;;4976260;28;20045;-82
2022/11/07 05:42:00;;;;;;;6.15;3.70;;;;;;;;;;4958673;28;20035;-81
2022/11/07 05:44:26;;;;;;;6.88;3.72;;;;;;;;;;4963048;28;20039;-82
2022/11/07 05:46:51;;;;;;;6.45;3.42;;;;;;;;;;4975847;28;20038;-82
2022/11/07 05:49:19;;;;;;;5.90;3.80;;;;;;;;;;4963397;28;21552;-82
2022/11/07 05:51:44;;;;;;;6.85;4.30;;;;;;;;;;4984237;28;20125;-82
2022/11/07 05:54:10;;;;;;;5.70;3.40;;;;;;;;;;4976869;28;20461;-82
2022/11/07 05:56:36;;;;;;;5.80;3.55;;;;;;;;;;4954077;28;20544;-82
2022/11/07 05:59:03;;;;;;;6.93;3.80;;;;;;;;;;4972838;28;20053;-81
2022/11/07 06:01:29;;;;;;;5.65;3.50;;;;;;;;;;4962722;28;20516;-83
2022/11/07 06:03:54;;;;;;;5.60;3.17;;;;;;;;;;4944258;28;20027;-83
2022/11/07 06:06:20;;;;;;;6.43;3.60;;;;;;;;;;4959799;28;20057;-81
2022/11/07 06:08:46;;;;;;;6.07;3.47;;;;;;;;;;4985402;28;20130;-81
2022/11/07 06:11:12;;;;;;;6.43;3.17;;;;;;;;;;4983606;28;20949;-82
2022/11/07 06:13:37;;;;;;;6.95;3.42;;;;;;;;;;4971437;28;20038;-82
2022/11/07 06:16:03;;;;;;;7.43;3.63;;;;;;;;;;4974777;28;20108;-84
2022/11/07 06:18:28;;;;;;;5.85;3.40;;;;;;;;;;4994756;28;20360;-83
2022/11/07 06:20:54;;;;;;;5.05;3.20;;;;;;;;;;4960965;28;20043;-84
2022/11/07 06:23:19;;;;;;;8.85;3.70;;;;;;;;;;4985047;28;20045;-80
2022/11/07 06:25:46;;;;;;;6.18;3.05;;;;;;;;;;4983523;28;20039;-80
2022/11/07 06:28:12;;;;;;;5.70;3.50;;;;;;;;;;4980390;28;20041;-81
2022/11/07 06:30:38;;;;;;;5.50;3.00;;;;;;;;;;4991037;28;20038;-83
2022/11/07 06:33:07;;;;;;;6.53;3.40;;;;;;;;;;4962969;28;20045;-82
2022/11/07 06:35:32;;;;;;;6.13;3.45;;;;;;;;;;4974531;28;20042;-82
2022/11/07 06:38:02;;;;;;;5.75;3.25;;;;;;;;;;4962613;28;20494;-82
2022/11/07 06:40:28;;;;;;;5.18;3.20;;;;;;;;;;4980568;28;20035;-81
2022/11/07 06:42:54;;;;;;;6.82;3.50;;;;;;;;;;4962632;28;20100;-81
2022/11/07 06:45:19;;;;;;;10.00;3.20;;;;;;;;;;4961273;28;20038;-82
2022/11/07 06:47:44;;;;;;;6.45;3.42;;;;;;;;;;4968307;28;20161;-81
2022/11/07 06:50:10;;;;;;;5.90;2.97;;;;;;;;;;4973940;28;20136;-82
2022/11/07 06:52:35;;;;;;;5.53;3.13;;;;;;;;;;4976578;28;20042;-82
2022/11/07 06:55:00;;;;;;;5.55;2.92;;;;;;;;;;4959824;28;20038;-81
2022/11/07 06:57:26;;;;;;;5.30;2.90;;;;;;;;;;4969253;28;20113;-82
2022/11/07 06:59:51;;;;;;;6.55;3.35;;;;;;;;;;4960731;28;20077;-81
2022/11/07 07:02:16;;;;;;;7.25;3.50;;;;;;;;;;4964105;28;20699;-81
2022/11/07 07:04:42;;;;;;;4.88;3.05;;;;;;;;;;4977648;28;20035;-81
2022/11/07 07:07:07;;;;;;;6.35;3.33;;;;;;;;;;4976384;28;20034;-81
2022/11/07 07:09:32;;;;;;;5.47;3.13;;;;;;;;;;4985549;28;20107;-81
2022/11/07 07:11:58;;;;;;;6.25;3.45;;;;;;;;;;4992655;28;20121;-82
2022/11/07 07:14:23;;;;;;;5.63;3.13;;;;;;;;;;4983597;28;20493;-81
2022/11/07 07:16:48;;;;;;;6.40;3.47;;;;;;;;;;4960068;28;20038;-82
2022/11/07 07:19:14;;;;;;;4.82;2.70;;;;;;;;;;4994620;28;20110;-81
2022/11/07 07:21:39;;;;;;;5.75;2.97;;;;;;;;;;4993393;28;20077;-81
2022/11/07 07:24:05;;;;;;;5.00;2.95;;;;;;;;;;4967938;28;20093;-81
2022/11/07 07:26:30;;;;;;;5.40;3.13;;;;;;;;;;4966976;28;20508;-81
2022/11/07 07:29:16;;;;;;;6.03;3.10;;;;;;;;;;4966330;28;20038;-81
2022/11/07 07:31:41;;;;;;;5.53;3.00;;;;;;;;;;4916533;29;20093;-81
2022/11/07 07:34:06;;;;;;;5.10;2.97;;;;;;;;;;4914369;29;20508;-81
2022/11/07 07:36:32;;;;;;;5.72;2.42;;;;;;;;;;4885110;29;20495;-81
2022/11/07 07:38:57;;;;;;;5.18;2.60;;;;;;;;;;4909986;29;20106;-81
2022/11/07 07:41:23;;;;;;;4.22;2.30;;;;;;;;;;4905700;29;20043;-82
2022/11/07 07:43:48;;;;;;;4.20;2.30;;;;;;;;;;4909336;29;20042;-81
2022/11/07 07:46:16;;;;;;;4.22;2.33;;;;;;;;;;4906389;29;20135;-81
2022/11/07 07:48:42;;;;;;;4.53;2.22;;;;;;;;;;4908894;29;20044;-81
2022/11/07 07:51:07;;;;;;;5.22;2.90;;;;;;;;;;4909634;29;20036;-81
2022/11/07 07:53:32;;;;;;;4.55;2.70;;;;;;;;;;4908252;29;20412;-81
2022/11/07 07:55:58;;;;;;;4.03;2.40;;;;;;;;;;4915687;29;20475;-80
2022/11/07 07:58:25;;;;;;;4.82;2.42;;;;;;;;;;4900565;29;20043;-81
2022/11/07 08:00:57;;;;;;;3.95;2.13;;;;;;;;;;4914835;29;20071;-81
2022/11/07 08:03:23;;;;;;;4.72;2.40;;;;;;;;;;4900569;29;20084;-80
2022/11/07 08:05:56;;;;;;;4.45;2.08;;;;;;;;;;4915589;29;20048;-81
2022/11/07 08:08:22;;;;;;;3.90;2.08;;;;;;;;;;4938373;28;20441;-81
2022/11/07 08:10:53;;;;;;;3.15;1.75;;;;;;;;;;4993925;28;20042;-80
2022/11/07 08:13:22;;;;;;;4.18;1.90;;;;;;;;;;4992294;28;20065;-81
2022/11/07 08:15:48;;;;;;;5.18;2.03;;;;;;;;;;4968914;28;20049;-81
2022/11/07 08:18:14;;;;;;;4.28;2.20;;;;;;;;;;4969660;28;20678;-81
2022/11/07 08:20:39;;;;;;;3.70;1.88;;;;;;;;;;4968426;28;20488;-81
2022/11/07 08:23:07;;;;;;;4.95;1.90;;;;;;;;;;4969878;28;20756;-81
2022/11/07 08:25:33;;;;;;;4.60;1.70;;;;;;;;;;4994122;28;20058;-81
2022/11/07 08:27:59;;;;;;;3.50;1.50;;;;;;;;;;4976425;28;20515;-80
2022/11/07 08:30:25;;;;;;;3.15;1.50;;;;;;;;;;4988093;28;20455;-80
2022/11/07 08:32:51;;;;;;;3.40;1.67;;;;;;;;;;4970500;28;20049;-81
2022/11/07 08:35:16;;;;;;;3.60;1.70;;;;;;;;;;4960620;28;20034;-81
2022/11/07 08:37:42;;;;;;;3.40;1.63;;;;;;;;;;4992168;28;20031;-81
2022/11/07 08:40:08;;;;;;;3.65;1.67;;;;;;;;;;4969720;28;20100;-81
2022/11/07 08:42:35;;;;;;;4.05;1.75;;;;;;;;;;4970409;28;20091;-81
2022/11/07 08:45:00;;;;;;;3.30;1.55;;;;;;;;;;4962925;28;20497;-80
2022/11/07 08:47:27;;;;;;;4.20;1.80;;;;;;;;;;4971312;28;20084;-81
2022/11/07 08:49:52;;;;;;;3.65;1.77;;;;;;;;;;4969415;28;20062;-81
2022/11/07 08:52:17;;;;;;;3.40;1.60;;;;;;;;;;4961622;28;20177;-81
2022/11/07 08:54:43;;;;;;;4.53;1.70;;;;;;;;;;4970252;28;20034;-80
2022/11/07 08:57:09;;;;;;;3.35;1.45;;;;;;;;;;4968476;28;20031;-82
2022/11/07 08:59:34;;;;;;;5.03;1.73;;;;;;;;;;4978455;28;20601;-81
2022/11/07 09:02:00;;;;;;;2.70;1.40;;;;;;;;;;4966056;28;20050;-82
2022/11/07 09:04:25;;;;;;;3.67;1.67;;;;;;;;;;4978515;28;20178;-82
2022/11/07 09:06:51;;;;;;;2.80;1.50;;;;;;;;;;4960849;28;20047;-81
2022/11/07 09:09:16;;;;;;;4.90;1.50;;;;;;;;;;4965510;28;20072;-81
2022/11/07 09:11:41;;;;;;;4.90;1.80;;;;;;;;;;4965562;28;20368;-81
2022/11/07 09:14:07;;;;;;;3.00;1.50;;;;;;;;;;4959400;28;20037;-82
2022/11/07 09:16:32;;;;;;;3.13;1.40;;;;;;;;;;4964630;28;20039;-83
2022/11/07 09:19:00;;;;;;;4.13;1.55;;;;;;;;;;4972905;28;20066;-81
2022/11/07 09:21:25;;;;;;;2.83;1.20;;;;;;;;;;4989508;28;20038;-82
2022/11/07 09:23:51;;;;;;;4.60;1.50;;;;;;;;;;4966059;28;20038;-82
2022/11/07 09:26:16;;;;;;;5.03;1.50;;;;;;;;;;4982533;28;20042;-82
2022/11/07 09:28:42;;;;;;;4.25;1.50;;;;;;;;;;4978456;28;20042;-82
2022/11/07 09:31:07;;;;;;;2.85;1.30;;;;;;;;;;4956780;28;20545;-82
2022/11/07 09:33:32;;;;;;;3.22;1.40;;;;;;;;;;4960400;28;20033;-82
2022/11/07 09:35:59;;;;;;;2.95;1.15;;;;;;;;;;4988829;28;20034;-82
2022/11/07 09:38:25;;;;;;;3.40;1.40;;;;;;;;;;4951415;28;20043;-82
2022/11/07 09:41:01;;;;;;;3.22;1.30;;;;;;;;;;4958519;28;20845;-82
2022/11/07 09:43:54;;;;;;;2.45;1.20;;;;;;;;;;4956863;28;20413;-82
2022/11/07 09:46:41;;;;;;;2.28;1.08;;;;;;;;;;4958555;28;20042;-81
2022/11/07 09:49:16;;;;;;;3.67;1.40;;;;;;;;;;4959473;28;20058;-82
2022/11/07 09:51:46;;;;;;;3.50;1.25;;;;;;;;;;4947051;28;20031;-81
2022/11/07 09:54:16;;;;;;;3.60;1.38;;;;;;;;;;4950011;28;20127;-82
2022/11/07 09:56:42;;;;;;;2.80;1.20;;;;;;;;;;4976221;28;20042;-81
2022/11/07 09:59:16;;;;;;;2.53;1.10;;;;;;;;;;4980799;28;20039;-81
2022/11/07 10:02:01;;;;;;;2.72;1.17;;;;;;;;;;4968759;28;20056;-81
2022/11/07 10:04:27;;;;;;;2.25;1.02;;;;;;;;;;4942822;28;20173;-82
2022/11/07 10:07:00;;;;;;;3.95;1.10;;;;;;;;;;4954398;28;20484;-82
2022/11/07 10:09:43;;;;;;;3.10;1.25;;;;;;;;;;4950046;28;20113;-82
2022/11/07 10:12:34;;;;;;;2.55;1.00;;;;;;;;;;4955880;28;20127;-82
2022/11/07 10:15:13;;;;;;;2.08;0.80;;;;;;;;;;4952812;28;20051;-81
2022/11/07 10:18:04;;;;;;;2.38;0.90;;;;;;;;;;4923158;28;20035;-81
2022/11/07 10:20:52;;;;;;;2.13;0.80;;;;;;;;;;4954545;28;20046;-82
2022/11/07 10:23:28;;;;;;;2.63;1.00;;;;;;;;;;4948504;28;20035;-82
2022/11/07 10:26:00;;;;;;;2.75;1.30;;;;;;;;;;4952914;28;20080;-81
2022/11/07 10:28:28;;;;;;;3.17;0.98;;;;;;;;;;4940422;28;20054;-82
2022/11/07 10:30:56;;;;;;;2.97;1.20;;;;;;;;;;4927789;29;20047;-81
2022/11/07 10:33:47;;;;;;;4.20;1.00;;;;;;;;;;4929014;29;20063;-82
2022/11/07 10:36:27;;;;;;;2.90;1.10;;;;;;;;;;4936015;28;20037;-81
2022/11/07 10:38:53;;;;;;;2.17;1.05;;;;;;;;;;4938167;28;20031;-82
2022/11/07 10:41:29;;;;;;;3.40;1.00;;;;;;;;;;4953759;28;20100;-81
2022/11/07 10:44:06;;;;;;;2.85;1.00;;;;;;;;;;4957375;28;20121;-81
2022/11/07 10:46:39;;;;;;;2.70;0.98;;;;;;;;;;4957044;28;20037;-82
2022/11/07 10:49:23;;;;;;;2.45;0.82;;;;;;;;;;4973502;28;20043;-82
2022/11/07 10:51:49;;;;;;;2.72;0.88;;;;;;;;;;4967263;28;21066;-82
2022/11/07 10:54:28;;;;;;;3.10;1.10;;;;;;;;;;4964789;28;20041;-82
2022/11/07 10:57:09;;;;;;;2.45;0.95;;;;;;;;;;4982495;28;20675;-82
2022/11/07 10:59:37;;;;;;;3.15;1.23;;;;;;;;;;4977220;28;20062;-82
2022/11/07 11:02:15;;;;;;;2.95;0.90;;;;;;;;;;4967350;28;20038;-82
2022/11/07 11:04:47;;;;;;;2.03;0.80;;;;;;;;;;4977537;28;20034;-82
2022/11/07 11:07:13;;;;;;;2.35;1.00;;;;;;;;;;4962036;28;20043;-82
2022/11/07 11:09:49;;;;;;;3.15;0.90;;;;;;;;;;4983614;28;20482;-82
2022/11/07 11:12:15;;;;;;;2.90;1.00;;;;;;;;;;4991116;28;20871;-83
2022/11/07 11:14:43;;;;;;;2.38;0.80;;;;;;;;;;4982491;28;20046;-82
2022/11/07 11:17:23;;;;;;;2.95;0.80;;;;;;;;;;4964808;28;20746;-82
2022/11/07 11:19:51;;;;;;;4.40;1.00;;;;;;;;;;4975198;28;20034;-83
2022/11/07 11:22:20;;;;;;;2.25;0.77;;;;;;;;;;4989197;28;20039;-84
2022/11/07 11:25:04;;;;;;;2.38;0.65;;;;;;;;;;4961367;28;20035;-81
2022/11/07 11:27:32;;;;;;;2.85;0.98;;;;;;;;;;4956374;28;20035;-82
2022/11/07 11:29:58;;;;;;;2.47;0.82;;;;;;;;;;4966822;28;20038;-81
2022/11/07 11:32:31;;;;;;;2.50;0.70;;;;;;;;;;4973417;28;20050;-81
2022/11/07 11:35:05;;;;;;;2.50;0.80;;;;;;;;;;4976161;28;20038;-81
2022/11/07 11:37:33;;;;;;;3.38;1.20;;;;;;;;;;4957445;28;20045;-81
2022/11/07 11:40:01;;;;;;;2.50;0.80;;;;;;;;;;4967941;28;20105;-82
2022/11/07 11:42:49;;;;;;;2.25;0.95;;;;;;;;;;4975633;28;20039;-82
2022/11/07 11:45:47;;;;;;;2.85;0.68;;;;;;;;;;4956191;28;20031;-81
2022/11/07 11:48:24;;;;;;;2.70;0.70;;;;;;;;;;4945075;28;20498;-80
2022/11/07 11:51:01;;;;;;;1.85;0.60;;;;;;;;;;4948837;28;20585;-80
2022/11/07 11:53:26;;;;;;;3.50;0.70;;;;;;;;;;4954762;28;20521;-82
2022/11/07 11:56:13;;;;;;;1.80;0.50;;;;;;;;;;4974954;28;20038;-82
2022/11/07 11:58:42;;;;;;;2.55;0.60;;;;;;;;;;4971971;28;20471;-81
2022/11/07 12:01:29;;;;;;;2.00;0.73;;;;;;;;;;4976707;28;20133;-81
2022/11/07 12:04:13;;;;;;;1.45;0.57;;;;;;;;;;4957889;28;20047;-81
2022/11/07 12:06:42;;;;;;;3.45;0.70;;;;;;;;;;4952790;28;20154;-81
2022/11/07 12:09:10;;;;;;;2.60;0.82;;;;;;;;;;4969272;28;20043;-81
2022/11/07 12:12:07;;;;;;;3.03;0.90;;;;;;;;;;4971070;28;20458;-81
2022/11/07 12:14:49;;;;;;;2.42;0.90;;;;;;;;;;4955496;28;20028;-82
2022/11/07 12:17:23;;;;;;;2.65;0.80;;;;;;;;;;4943675;28;20115;-80
2022/11/07 12:20:10;;;;;;;2.97;0.70;;;;;;;;;;4953280;28;22859;-81
2022/11/07 12:22:47;;;;;;;3.17;0.80;;;;;;;;;;4956017;28;20043;-81
2022/11/07 12:25:22;;;;;;;2.85;0.70;;;;;;;;;;4935841;28;20039;-81
2022/11/07 12:28:03;;;;;;;2.47;0.90;;;;;;;;;;4940551;28;20044;-83
2022/11/07 12:30:40;;;;;;;3.10;0.98;;;;;;;;;;4938960;28;20558;-81
2022/11/07 12:33:18;;;;;;;4.25;1.33;;;;;;;;;;4968179;28;20399;-81
2022/11/07 12:35:45;;;;;;;3.60;0.98;;;;;;;;;;4950529;28;20045;-80
2022/11/07 12:38:20;;;;;;;2.47;0.90;;;;;;;;;;4923000;29;20491;-81
2022/11/07 12:41:00;;;;;;;2.88;1.05;;;;;;;;;;4939839;28;20365;-80
2022/11/07 12:43:28;;;;;;;2.22;0.77;;;;;;;;;;4935166;28;20043;-82
2022/11/07 12:46:36;;;;;;;3.33;0.80;;;;;;;;;;4941043;28;20039;-79
2022/11/07 12:49:04;;;;;;;1.52;0.70;;;;;;;;;;4937188;28;20395;-80
2022/11/07 12:51:41;;;;;;;5.32;0.75;;;;;;;;;;4942979;28;20561;-82
2022/11/07 12:54:42;;;;;;;2.10;0.90;;;;;;;;;;4954668;28;20063;-81
2022/11/07 12:57:19;;;;;;;2.20;0.82;;;;;;;;;;4959480;28;20043;-81
2022/11/07 12:59:56;;;;;;;2.88;0.98;;;;;;;;;;4940449;28;20047;-81
2022/11/07 13:02:33;;;;;;;3.42;1.15;;;;;;;;;;4946952;28;20438;-81
2022/11/07 13:05:05;;;;;;;3.13;0.80;;;;;;;;;;4966046;28;20042;-80
2022/11/07 13:07:38;;;;;;;3.70;1.00;;;;;;;;;;4974247;28;20035;-81
2022/11/07 13:10:28;;;;;;;2.88;0.90;;;;;;;;;;4959131;28;20133;-80
2022/11/07 13:13:01;;;;;;;2.80;0.90;;;;;;;;;;4924861;29;20554;-81
2022/11/07 13:15:26;;;;;;;3.45;1.00;;;;;;;;;;4927598;28;20043;-81
2022/11/07 13:17:52;;;;;;;2.20;0.82;;;;;;;;;;4929547;29;20484;-80
2022/11/07 13:20:20;;;;;;;3.85;1.10;;;;;;;;;;4913318;29;20039;-82
2022/11/07 13:22:50;;;;;;;2.75;0.95;;;;;;;;;;4935954;29;20070;-82
2022/11/07 13:25:15;;;;;;;2.08;1.02;;;;;;;;;;4947672;29;20075;-81
2022/11/07 13:27:45;;;;;;;3.28;0.85;;;;;;;;;;4947356;29;20039;-81
2022/11/07 13:30:10;;;;;;;3.35;1.05;;;;;;;;;;4933200;29;20046;-81
2022/11/07 13:32:43;;;;;;;2.50;0.75;;;;;;;;;;4933453;29;20459;-82
2022/11/07 13:35:24;;;;;;;1.88;0.90;;;;;;;;;;4920841;29;20163;-82
2022/11/07 13:37:56;;;;;;;2.78;0.90;;;;;;;;;;4931185;28;20400;-82
2022/11/07 13:40:27;;;;;;;3.38;1.00;;;;;;;;;;4930772;28;20043;-81
2022/11/07 13:42:58;;;;;;;2.83;1.00;;;;;;;;;;4934156;29;20431;-83
2022/11/07 13:45:31;;;;;;;3.08;1.17;;;;;;;;;;4921349;29;20508;-81
2022/11/07 13:48:18;;;;;;;2.05;0.88;;;;;;;;;;4930560;29;20047;-81
2022/11/07 13:50:50;;;;;;;3.03;1.13;;;;;;;;;;4910004;28;20039;-82
2022/11/07 13:53:22;;;;;;;2.22;0.93;;;;;;;;;;4913982;28;20079;-82
2022/11/07 13:55:55;;;;;;;3.97;0.90;;;;;;;;;;4914774;28;20147;-80
2022/11/07 13:58:21;;;;;;;2.13;0.70;;;;;;;;;;4913693;28;20577;-82
2022/11/07 14:00:46;;;;;;;2.55;0.93;;;;;;;;;;4912396;28;20040;-80
2022/11/07 14:03:41;;;;;;;3.42;1.25;;;;;;;;;;4896949;28;20059;-81
2022/11/07 14:06:11;;;;;;;5.20;1.10;;;;;;;;;;4906889;28;20086;-81
2022/11/07 14:08:38;;;;;;;3.28;1.02;;;;;;;;;;4929664;28;20043;-80
2022/11/07 14:11:14;;;;;;;3.28;1.35;;;;;;;;;;4913712;28;20043;-80
2022/11/07 14:13:40;;;;;;;4.10;1.20;;;;;;;;;;4927625;28;20040;-80
2022/11/07 14:16:19;;;;;;;2.40;0.90;;;;;;;;;;4911265;28;20032;-81
2022/11/07 14:18:50;;;;;;;3.97;1.30;;;;;;;;;;4896539;28;20147;-80
2022/11/07 14:21:20;;;;;;;4.85;1.13;;;;;;;;;;4909151;28;20514;-80
2022/11/07 14:23:46;;;;;;;4.63;1.25;;;;;;;;;;4898786;28;20054;-81
2022/11/07 14:26:19;;;;;;;3.13;0.90;;;;;;;;;;4896468;28;20031;-80
2022/11/07 14:28:45;;;;;;;3.63;1.08;;;;;;;;;;4974208;28;20042;-80
2022/11/07 14:31:25;;;;;;;2.35;1.02;;;;;;;;;;4982898;28;20034;-80
2022/11/07 14:33:53;;;;;;;4.28;1.15;;;;;;;;;;4978884;28;20046;-80
2022/11/07 14:36:19;;;;;;;2.72;1.00;;;;;;;;;;4967578;28;20560;-81
2022/11/07 14:38:51;;;;;;;3.17;0.98;;;;;;;;;;4981278;28;20049;-80
2022/11/07 14:41:17;;;;;;;4.15;1.00;;;;;;;;;;4967421;28;20040;-81
2022/11/07 14:43:43;;;;;;;4.68;1.15;;;;;;;;;;4965553;28;20041;-81
2022/11/07 14:46:14;;;;;;;4.35;1.08;;;;;;;;;;4958065;28;20042;-81
2022/11/07 14:48:40;;;;;;;2.40;1.00;;;;;;;;;;4975574;28;20072;-82
2022/11/07 14:51:05;;;;;;;4.80;1.15;;;;;;;;;;4958580;28;20035;-80
2022/11/07 14:53:50;;;;;;;2.67;0.80;;;;;;;;;;4963851;28;20045;-81
2022/11/07 14:56:21;;;;;;;3.50;1.20;;;;;;;;;;4975806;28;20030;-81
2022/11/07 14:58:46;;;;;;;2.80;1.00;;;;;;;;;;4967269;28;20042;-81
2022/11/07 15:01:13;;;;;;;3.55;1.05;;;;;;;;;;4981982;28;20390;-82
2022/11/07 15:03:57;;;;;;;2.65;1.00;;;;;;;;;;4992098;28;20088;-81
2022/11/07 15:06:32;;;;;;;2.58;0.80;;;;;;;;;;4986991;28;20046;-81
2022/11/07 15:09:02;;;;;;;3.60;1.20;;;;;;;;;;4946779;28;20175;-80